Time;durP1;ratioP1;P1;durP2;ratioP2;P2;SDS_P1;SDS_P2;PMS_P1;PMS_P2;Temp;Humidity;BMP_temperature;BMP_pressure;BME280_temperature;BME280_humidity;BME280_pressure;Samples;Min_cycle;Max_cycle;Signal;HPM_P1;HPM_P2
2024/01/20 00:00:54;;;;;;;;;;;;;;;-3.91;60.99;96335.94;5056023;28;20138;-78
2024/01/20 00:03:19;;;;;;;;;;;;;;;-3.84;62.86;96328.72;5059016;28;19920;-77
2024/01/20 00:05:44;;;;;;;;;;;;;;;-3.79;59.70;96345.81;5055762;28;20191;-78
2024/01/20 00:08:10;;;;;;;;;;;;;;;-3.86;58.80;96330.53;5066016;28;19920;-77
2024/01/20 00:10:35;;;;;;;;;;;;;;;-3.89;61.10;96331.53;5062525;28;19924;-78
2024/01/20 00:13:00;;;;;;;;;;;;;;;-3.95;61.63;96329.19;5056138;28;20177;-78
2024/01/20 00:15:25;;;;;;;;;;;;;;;-4.02;61.94;96338.19;5067900;28;20518;-78
2024/01/20 00:17:50;;;;;;;;;;;;;;;-4.22;56.61;96326.91;5041407;28;19920;-78
2024/01/20 00:20:16;;;;;;;;;;;;;;;-4.32;62.21;96336.88;5058080;28;20001;-78
2024/01/20 00:22:42;;;;;;;;;;;;;;;-4.43;62.32;96334.75;5057963;28;19927;-78
2024/01/20 00:25:08;;;;;;;;;;;;;;;-4.53;62.35;96338.66;5043557;28;19976;-79
2024/01/20 00:27:34;;;;;;;;;;;;;;;-4.68;62.64;96341.84;5043606;28;19927;-78
2024/01/20 00:29:59;;;;;;;;;;;;;;;-4.81;63.05;96335.50;5034316;28;19921;-77
2024/01/20 00:32:24;;;;;;;;;;;;;;;-4.95;63.22;96336.06;5056470;28;20396;-78
2024/01/20 00:34:49;;;;;;;;;;;;;;;-5.10;63.84;96340.13;5049136;28;19920;-79
2024/01/20 00:37:15;;;;;;;;;;;;;;;-5.28;63.20;96342.56;5061860;28;19932;-79
2024/01/20 00:39:40;;;;;;;;;;;;;;;-5.50;63.47;96346.00;5067647;28;19983;-79
2024/01/20 00:42:05;;;;;;;;;;;;;;;-5.65;65.92;96339.66;5066823;28;19928;-78
2024/01/20 00:44:30;;;;;;;;;;;;;;;-5.87;65.02;96340.47;5065770;28;19962;-78
2024/01/20 00:46:56;;;;;;;;;;;;;;;-6.04;65.12;96338.53;5065261;28;19927;-78
2024/01/20 00:49:21;;;;;;;;;;;;;;;-6.15;65.95;96333.72;5042838;28;19920;-78
2024/01/20 00:51:46;;;;;;;;;;;;;;;-6.29;63.83;96328.22;5045760;28;19927;-78
2024/01/20 00:54:11;;;;;;;;;;;;;;;-6.51;61.48;96335.03;5051239;28;20323;-78
2024/01/20 00:56:37;;;;;;;;;;;;;;;-6.65;60.87;96330.31;5043646;28;19933;-78
2024/01/20 00:59:02;;;;;;;;;;;;;;;-6.72;61.74;96331.44;5066776;28;19924;-78
2024/01/20 01:01:27;;;;;;;;;;;;;;;-6.79;60.29;96335.94;5049160;28;20054;-78
2024/01/20 01:03:53;;;;;;;;;;;;;;;-6.68;66.85;96330.44;5059901;28;19928;-78
2024/01/20 01:06:18;;;;;;;;;;;;;;;-6.65;65.07;96339.84;5057004;28;20194;-78
2024/01/20 01:08:43;;;;;;;;;;;;;;;-6.62;65.61;96340.56;5047716;28;20011;-78
2024/01/20 01:11:09;;;;;;;;;;;;;;;-6.56;67.53;96334.31;5038123;28;19928;-78
2024/01/20 01:13:36;;;;;;;;;;;;;;;-6.89;55.15;96337.19;5043275;28;20386;-78
2024/01/20 01:16:02;;;;;;;;;;;;;;;-6.79;63.80;96340.31;5061145;28;19989;-78
2024/01/20 01:18:27;;;;;;;;;;;;;;;-6.69;63.87;96346.84;5061664;28;19947;-78
2024/01/20 01:20:52;;;;;;;;;;;;;;;-6.53;65.47;96352.34;5068083;28;20299;-78
2024/01/20 01:23:18;;;;;;;;;;;;;;;-6.40;66.14;96363.13;5060577;28;20239;-78
2024/01/20 01:25:43;;;;;;;;;;;;;;;-6.44;61.85;96361.56;5042455;28;19920;-77
2024/01/20 01:28:08;;;;;;;;;;;;;;;-6.34;64.46;96362.06;5063386;28;20407;-78
2024/01/20 01:30:34;;;;;;;;;;;;;;;-6.50;56.66;96361.75;5059945;28;19931;-78
2024/01/20 01:32:59;;;;;;;;;;;;;;;-6.39;63.14;96370.00;5046546;28;20370;-78
2024/01/20 01:35:24;;;;;;;;;;;;;;;-6.25;65.21;96361.75;5059313;28;20672;-78
2024/01/20 01:37:49;;;;;;;;;;;;;;;-6.17;63.37;96358.03;5065704;28;19959;-78
2024/01/20 01:40:15;;;;;;;;;;;;;;;-6.25;58.42;96360.91;5069422;28;19928;-78
2024/01/20 01:42:40;;;;;;;;;;;;;;;-6.16;63.33;96365.75;5066214;28;19925;-78
2024/01/20 01:45:05;;;;;;;;;;;;;;;-5.99;66.13;96362.53;5073695;28;20385;-78
2024/01/20 01:47:31;;;;;;;;;;;;;;;-5.95;62.93;96363.28;5066852;28;19920;-79
2024/01/20 01:49:56;;;;;;;;;;;;;;;-5.92;62.94;96373.53;5074880;28;19931;-79
2024/01/20 01:52:22;;;;;;;;;;;;;;;-5.82;63.77;96370.63;5066369;28;20035;-78
2024/01/20 01:54:47;;;;;;;;;;;;;;;-5.95;55.15;96376.22;5044017;28;20405;-79
2024/01/20 01:57:12;;;;;;;;;;;;;;;-6.00;60.34;96376.44;5040302;28;20252;-77
2024/01/20 01:59:38;;;;;;;;;;;;;;;-5.97;60.77;96380.66;5060829;28;20175;-79
2024/01/20 02:02:03;;;;;;;;;;;;;;;-5.96;59.14;96377.16;5067560;28;20427;-79
2024/01/20 02:04:28;;;;;;;;;;;;;;;-5.91;62.62;96377.81;5064724;28;19964;-78
2024/01/20 02:06:53;;;;;;;;;;;;;;;-5.92;60.81;96378.72;5060253;28;20340;-78
2024/01/20 02:09:19;;;;;;;;;;;;;;;-5.85;64.09;96379.34;5040976;28;19924;-77
2024/01/20 02:11:44;;;;;;;;;;;;;;;-5.91;61.88;96374.38;5060798;28;19916;-78
2024/01/20 02:14:10;;;;;;;;;;;;;;;-5.94;63.86;96377.94;5043612;28;19920;-78
2024/01/20 02:16:35;;;;;;;;;;;;;;;-6.19;55.64;96376.22;5061408;28;19920;-78
2024/01/20 02:19:01;;;;;;;;;;;;;;;-6.38;58.80;96378.63;5066430;28;20011;-78
2024/01/20 02:21:26;;;;;;;;;;;;;;;-6.44;59.60;96381.44;5065819;28;20002;-79
2024/01/20 02:23:51;;;;;;;;;;;;;;;-6.44;61.14;96384.03;5047490;28;19920;-78
2024/01/20 02:26:16;;;;;;;;;;;;;;;-6.42;63.56;96385.66;5057868;28;19916;-78
2024/01/20 02:28:42;;;;;;;;;;;;;;;-6.62;58.23;96382.00;5062572;28;20552;-78
2024/01/20 02:31:07;;;;;;;;;;;;;;;-6.71;62.44;96378.88;5058639;28;20398;-78
2024/01/20 02:33:32;;;;;;;;;;;;;;;-6.80;62.25;96377.47;5075014;28;20372;-78
2024/01/20 02:35:57;;;;;;;;;;;;;;;-6.99;62.83;96380.66;5046076;28;19950;-78
2024/01/20 02:38:23;;;;;;;;;;;;;;;-7.20;60.85;96382.19;5062065;28;19969;-78
2024/01/20 02:40:50;;;;;;;;;;;;;;;-7.27;63.02;96389.31;5037784;28;20012;-78
2024/01/20 02:43:15;;;;;;;;;;;;;;;-7.49;59.37;96391.69;5061914;28;20002;-79
2024/01/20 02:45:41;;;;;;;;;;;;;;;-7.61;61.60;96390.34;5067250;28;19970;-78
2024/01/20 02:48:06;;;;;;;;;;;;;;;-7.67;64.21;96396.53;5071131;28;20272;-78
2024/01/20 02:50:32;;;;;;;;;;;;;;;-7.81;62.33;96387.44;5064892;28;19940;-78
2024/01/20 02:52:57;;;;;;;;;;;;;;;-8.06;57.46;96390.75;5063859;28;20217;-78
2024/01/20 02:55:22;;;;;;;;;;;;;;;-8.12;62.99;96390.91;5070896;28;20031;-78
2024/01/20 02:57:47;;;;;;;;;;;;;;;-8.39;57.67;96401.13;5053366;28;19970;-78
2024/01/20 03:00:13;;;;;;;;;;;;;;;-8.48;62.59;96402.22;5069771;28;19980;-78
2024/01/20 03:02:38;;;;;;;;;;;;;;;-8.68;60.26;96403.59;5068474;28;19947;-78
2024/01/20 03:05:03;;;;;;;;;;;;;;;-8.81;60.38;96415.94;5066193;28;20048;-81
2024/01/20 03:07:28;;;;;;;;;;;;;;;-8.95;61.52;96418.88;5068585;28;20344;-80
2024/01/20 03:09:54;;;;;;;;;;;;;;;-8.96;63.52;96413.75;5068275;28;20016;-78
2024/01/20 03:12:19;;;;;;;;;;;;;;;-8.98;63.06;96412.91;5074540;28;20299;-78
2024/01/20 03:14:45;;;;;;;;;;;;;;;-9.03;63.55;96414.78;5065337;28;19958;-77
2024/01/20 03:17:10;;;;;;;;;;;;;;;-8.99;65.71;96409.50;5065135;28;20005;-79
2024/01/20 03:19:35;;;;;;;;;;;;;;;-9.12;61.09;96415.84;5048679;28;19962;-80
2024/01/20 03:22:00;;;;;;;;;;;;;;;-9.14;65.88;96417.63;5062539;28;19961;-79
2024/01/20 03:24:26;;;;;;;;;;;;;;;-9.13;66.59;96424.47;5066136;28;20029;-78
2024/01/20 03:26:54;;;;;;;;;;;;;;;-9.09;67.49;96426.09;5054037;28;20487;-78
2024/01/20 03:29:19;;;;;;;;;;;;;;;-9.10;66.75;96426.97;5067845;28;20312;-80
2024/01/20 03:31:44;;;;;;;;;;;;;;;-9.25;62.47;96423.88;5058040;28;20214;-78
2024/01/20 03:34:10;;;;;;;;;;;;;;;-9.56;56.92;96427.13;5062156;28;20393;-78
2024/01/20 03:36:35;;;;;;;;;;;;;;;-9.64;58.78;96421.31;5048450;28;19973;-79
2024/01/20 03:39:01;;;;;;;;;;;;;;;-9.62;62.48;96419.56;5061060;28;20581;-78
2024/01/20 03:41:26;;;;;;;;;;;;;;;-9.73;61.55;96428.34;5062930;28;19963;-80
2024/01/20 03:43:51;;;;;;;;;;;;;;;-9.72;62.58;96424.06;5071310;28;19935;-77
2024/01/20 03:46:17;;;;;;;;;;;;;;;-9.65;65.23;96411.88;5056828;28;19952;-78
2024/01/20 03:48:42;;;;;;;;;;;;;;;-9.62;66.85;96411.81;5040330;28;20232;-80
2024/01/20 03:51:08;;;;;;;;;;;;;;;-9.79;60.96;96407.84;5057601;28;20186;-77
2024/01/20 03:53:33;;;;;;;;;;;;;;;-9.71;66.79;96412.84;5058779;28;19970;-80
2024/01/20 03:56:00;;;;;;;;;;;;;;;-9.91;62.81;96413.25;5055216;28;19976;-77
2024/01/20 03:58:25;;;;;;;;;;;;;;;-10.15;58.49;96413.75;5068948;28;20189;-80
2024/01/20 04:00:50;;;;;;;;;;;;;;;-10.33;59.65;96414.09;5056449;28;20128;-78
2024/01/20 04:03:16;;;;;;;;;;;;;;;-10.52;56.06;96417.00;5047491;28;19952;-76
2024/01/20 04:05:41;;;;;;;;;;;;;;;-10.68;54.59;96419.84;5055660;28;19968;-78
2024/01/20 04:08:06;;;;;;;;;;;;;;;-10.50;62.26;96428.13;5062659;28;20364;-77
2024/01/20 04:10:31;;;;;;;;;;;;;;;-10.56;62.00;96433.38;5037733;28;20444;-77
2024/01/20 04:12:57;;;;;;;;;;;;;;;-10.68;58.93;96435.28;5038142;28;20058;-79
2024/01/20 04:15:22;;;;;;;;;;;;;;;-10.66;61.13;96437.84;5058492;28;19964;-78
2024/01/20 04:17:48;;;;;;;;;;;;;;;-10.82;55.84;96445.81;5055747;28;19965;-78
2024/01/20 04:20:13;;;;;;;;;;;;;;;-10.56;65.62;96449.69;5040395;28;19971;-78
2024/01/20 04:22:38;;;;;;;;;;;;;;;-10.38;66.55;96448.50;5057169;28;20426;-78
2024/01/20 04:25:03;;;;;;;;;;;;;;;-10.32;66.36;96452.69;5060605;28;19988;-78
2024/01/20 04:27:29;;;;;;;;;;;;;;;-10.25;67.16;96443.97;5063037;28;20286;-78
2024/01/20 04:29:54;;;;;;;;;;;;;;;-10.20;68.38;96445.63;5068013;28;20124;-78
2024/01/20 04:32:19;;;;;;;;;;;;;;;-10.28;65.60;96458.63;5067492;28;19958;-78
2024/01/20 04:34:45;;;;;;;;;;;;;;;-10.24;66.96;96449.97;5065632;28;19949;-78
2024/01/20 04:37:10;;;;;;;;;;;;;;;-10.24;67.08;96461.13;5055827;28;20494;-78
2024/01/20 04:39:35;;;;;;;;;;;;;;;-10.29;67.03;96454.34;5057225;28;20277;-78
2024/01/20 04:42:00;;;;;;;;;;;;;;;-10.41;64.39;96452.84;5049525;28;19957;-78
2024/01/20 04:44:25;;;;;;;;;;;;;;;-10.36;67.66;96454.47;5069277;28;20576;-78
2024/01/20 04:46:51;;;;;;;;;;;;;;;-10.50;63.37;96454.72;5061475;28;20076;-78
2024/01/20 04:49:16;;;;;;;;;;;;;;;-10.75;58.60;96452.56;5046018;28;19960;-78
2024/01/20 04:51:41;;;;;;;;;;;;;;;-11.01;54.37;96458.16;5041179;28;19947;-78
2024/01/20 04:54:06;;;;;;;;;;;;;;;-10.88;66.58;96458.78;5058933;28;20448;-78
2024/01/20 04:56:32;;;;;;;;;;;;;;;-10.75;67.74;96452.56;5064728;28;20010;-78
2024/01/20 04:58:57;;;;;;;;;;;;;;;-10.79;64.56;96458.66;5055735;28;20252;-78
2024/01/20 05:01:22;;;;;;;;;;;;;;;-10.73;66.33;96451.69;5044514;28;19961;-79
2024/01/20 05:03:47;;;;;;;;;;;;;;;-10.67;65.71;96459.31;5067894;28;19999;-78
2024/01/20 05:06:13;;;;;;;;;;;;;;;-10.57;66.15;96463.41;5028336;28;19994;-77
2024/01/20 05:08:38;;;;;;;;;;;;;;;-10.49;66.20;96465.88;5041856;28;20336;-78
2024/01/20 05:11:03;;;;;;;;;;;;;;;-10.43;66.01;96472.63;5042872;28;20394;-78
2024/01/20 05:13:29;;;;;;;;;;;;;;;-10.35;67.51;96478.50;5072854;28;19958;-78
2024/01/20 05:15:55;;;;;;;;;;;;;;;-10.54;60.84;96473.66;5049834;28;20243;-78
2024/01/20 05:18:20;;;;;;;;;;;;;;;-10.85;56.79;96468.19;5050354;28;19936;-78
2024/01/20 05:20:45;;;;;;;;;;;;;;;-10.85;59.33;96468.19;5046982;28;20079;-78
2024/01/20 05:23:11;;;;;;;;;;;;;;;-11.20;50.60;96467.84;5061082;28;20049;-78
2024/01/20 05:25:37;;;;;;;;;;;;;;;-11.45;49.71;96470.78;5058510;28;19969;-79
2024/01/20 05:28:02;;;;;;;;;;;;;;;-11.26;61.18;96481.63;5039770;28;20255;-78
2024/01/20 05:30:27;;;;;;;;;;;;;;;-11.23;58.06;96485.88;5071355;28;19996;-78
2024/01/20 05:32:52;;;;;;;;;;;;;;;-11.07;63.97;96486.53;5056427;28;19965;-78
2024/01/20 05:35:18;;;;;;;;;;;;;;;-11.18;59.29;96489.25;5057824;28;20347;-77
2024/01/20 05:37:44;;;;;;;;;;;;;;;-11.35;52.88;96486.94;5057098;28;20386;-77
2024/01/20 05:40:09;;;;;;;;;;;;;;;-11.22;63.76;96500.47;5067040;28;19979;-79
2024/01/20 05:42:34;;;;;;;;;;;;;;;-11.22;61.37;96506.44;5069681;28;20329;-77
2024/01/20 05:45:00;;;;;;;;;;;;;;;-11.20;63.78;96503.84;5066387;28;19970;-78
2024/01/20 05:47:25;;;;;;;;;;;;;;;-11.17;63.64;96496.97;5068272;28;19982;-80
2024/01/20 05:49:50;;;;;;;;;;;;;;;-11.24;60.97;96513.34;5045611;28;20337;-80
2024/01/20 05:52:16;;;;;;;;;;;;;;;-11.26;63.05;96510.78;5059013;28;19969;-77
2024/01/20 05:54:41;;;;;;;;;;;;;;;-11.34;62.26;96517.75;5060919;28;20038;-78
2024/01/20 05:57:07;;;;;;;;;;;;;;;-11.27;62.88;96506.53;5047055;28;19965;-78
2024/01/20 05:59:32;;;;;;;;;;;;;;;-11.18;62.83;96513.25;5046324;28;19958;-78
2024/01/20 06:01:57;;;;;;;;;;;;;;;-11.08;63.46;96520.84;5056215;28;19959;-77
2024/01/20 06:04:23;;;;;;;;;;;;;;;-11.11;62.21;96515.75;5040102;28;20515;-78
2024/01/20 06:06:48;;;;;;;;;;;;;;;-11.01;66.00;96518.16;5062153;28;19943;-77
2024/01/20 06:09:14;;;;;;;;;;;;;;;-11.10;61.75;96505.44;5041869;28;20458;-77
2024/01/20 06:11:39;;;;;;;;;;;;;;;-11.12;62.43;96509.72;5038817;28;20393;-79
2024/01/20 06:14:05;;;;;;;;;;;;;;;-11.26;57.54;96512.50;5060133;28;20053;-77
2024/01/20 06:16:30;;;;;;;;;;;;;;;-11.19;62.80;96520.97;5055534;28;19963;-78
2024/01/20 06:18:56;;;;;;;;;;;;;;;-11.08;65.62;96526.00;5045759;28;19984;-77
2024/01/20 06:21:24;;;;;;;;;;;;;;;-11.06;64.49;96519.09;5056240;28;19964;-77
2024/01/20 06:23:49;;;;;;;;;;;;;;;-11.10;64.35;96523.44;5044526;28;19946;-77
2024/01/20 06:26:15;;;;;;;;;;;;;;;-11.17;63.25;96534.69;5056665;28;20019;-77
2024/01/20 06:28:40;;;;;;;;;;;;;;;-11.13;65.18;96544.03;5059647;28;20044;-77
2024/01/20 06:31:05;;;;;;;;;;;;;;;-11.31;60.87;96547.72;5058526;28;20008;-80
2024/01/20 06:33:30;;;;;;;;;;;;;;;-11.40;60.10;96543.53;5059886;28;19989;-79
2024/01/20 06:35:55;;;;;;;;;;;;;;;-11.60;56.74;96539.50;5050784;28;20178;-78
2024/01/20 06:38:21;;;;;;;;;;;;;;;-11.67;54.80;96540.44;5065104;28;20022;-78
2024/01/20 06:40:46;;;;;;;;;;;;;;;-11.58;61.64;96542.91;5066848;28;19976;-78
2024/01/20 06:43:11;;;;;;;;;;;;;;;-11.54;62.22;96549.72;5072021;28;20015;-78
2024/01/20 06:45:36;;;;;;;;;;;;;;;-11.54;62.07;96552.28;5066833;28;20341;-78
2024/01/20 06:48:02;;;;;;;;;;;;;;;-11.89;50.50;96553.53;5040494;28;19969;-77
2024/01/20 06:50:27;;;;;;;;;;;;;;;-12.11;51.37;96548.59;5065519;28;19979;-77
2024/01/20 06:52:52;;;;;;;;;;;;;;;-12.49;47.28;96554.94;5056082;28;20050;-77
2024/01/20 06:55:36;;;;;;;;;;;;;;;-12.45;51.30;96560.03;5057395;28;20004;-77
2024/01/20 06:58:03;;;;;;;;;;;;;;;-12.11;61.57;96564.00;5059303;28;20497;-77
2024/01/20 07:00:28;;;;;;;;;;;;;;;-12.01;60.36;96548.50;5065186;28;19982;-77
2024/01/20 07:02:53;;;;;;;;;;;;;;;-11.98;57.90;96554.47;5057040;28;19945;-77
2024/01/20 07:05:19;;;;;;;;;;;;;;;-12.10;53.91;96549.47;5061140;28;19960;-77
2024/01/20 07:07:44;;;;;;;;;;;;;;;-12.01;57.80;96556.22;5060982;28;20051;-77
2024/01/20 07:10:09;;;;;;;;;;;;;;;-12.01;57.01;96554.50;5050291;28;19945;-77
2024/01/20 07:12:35;;;;;;;;;;;;;;;-11.89;59.45;96555.25;5065518;28;19967;-77
2024/01/20 07:15:00;;;;;;;;;;;;;;;-11.93;56.51;96554.44;5066163;28;19947;-77
2024/01/20 07:17:25;;;;;;;;;;;;;;;-11.81;57.29;96564.56;5039574;28;20020;-77
2024/01/20 07:19:50;;;;;;;;;;;;;;;-11.64;59.75;96576.38;5043656;28;20020;-77
2024/01/20 07:22:16;;;;;;;;;;;;;;;-11.53;58.52;96589.09;5056284;28;20139;-77
2024/01/20 07:24:41;;;;;;;;;;;;;;;-11.37;60.11;96576.06;5058196;28;19974;-77
2024/01/20 07:27:06;;;;;;;;;;;;;;;-11.29;59.46;96587.97;5056239;28;19942;-77
2024/01/20 07:29:31;;;;;;;;;;;;;;;-11.28;58.47;96587.09;5061363;28;19990;-77
2024/01/20 07:31:57;;;;;;;;;;;;;;;-11.37;53.95;96589.78;5060286;28;20022;-77
2024/01/20 07:34:22;;;;;;;;;;;;;;;-11.60;49.42;96592.59;5042246;28;20097;-77
2024/01/20 07:36:47;;;;;;;;;;;;;;;-11.55;55.44;96596.84;5056945;28;20030;-77
2024/01/20 07:39:12;;;;;;;;;;;;;;;-11.44;57.44;96595.88;5062543;28;19945;-77
2024/01/20 07:41:40;;;;;;;;;;;;;;;-11.48;53.01;96601.91;5061331;28;21551;-77
2024/01/20 07:44:05;;;;;;;;;;;;;;;-11.52;54.19;96604.50;5062597;28;20097;-77
2024/01/20 07:46:30;;;;;;;;;;;;;;;-11.38;57.42;96606.09;5041765;28;19932;-77
2024/01/20 07:48:55;;;;;;;;;;;;;;;-11.35;56.16;96605.19;5050412;28;20442;-77
2024/01/20 07:51:20;;;;;;;;;;;;;;;-11.52;49.54;96606.25;5048513;28;19981;-77
2024/01/20 07:53:47;;;;;;;;;;;;;;;-11.57;50.71;96614.00;5051821;28;20262;-78
2024/01/20 07:56:14;;;;;;;;;;;;;;;-11.47;53.27;96619.91;5062447;28;20532;-77
2024/01/20 07:58:39;;;;;;;;;;;;;;;-11.27;56.22;96617.09;5065728;28;20227;-77
2024/01/20 08:01:04;;;;;;;;;;;;;;;-11.10;57.70;96622.88;5047855;28;20006;-76
2024/01/20 08:03:29;;;;;;;;;;;;;;;-11.18;51.49;96623.00;5066001;28;19966;-77
2024/01/20 08:05:55;;;;;;;;;;;;;;;-11.04;55.03;96626.22;5062161;28;19961;-77
2024/01/20 08:08:20;;;;;;;;;;;;;;;-10.90;55.79;96625.22;5073999;28;19965;-77
2024/01/20 08:10:45;;;;;;;;;;;;;;;-10.86;54.42;96634.59;5071864;28;19937;-77
2024/01/20 08:13:11;;;;;;;;;;;;;;;-10.63;57.46;96639.41;5067452;28;20732;-76
2024/01/20 08:15:36;;;;;;;;;;;;;;;-10.54;55.53;96648.75;5061856;28;19943;-78
2024/01/20 08:18:01;;;;;;;;;;;;;;;-10.36;57.32;96646.78;5061556;28;20073;-77
2024/01/20 08:20:27;;;;;;;;;;;;;;;-10.25;57.50;96644.91;5062076;28;19963;-77
2024/01/20 08:22:52;;;;;;;;;;;;;;;-10.24;55.33;96645.72;5066872;28;19943;-78
2024/01/20 08:25:17;;;;;;;;;;;;;;;-10.12;57.10;96640.38;5071417;28;19967;-78
2024/01/20 08:27:43;;;;;;;;;;;;;;;-10.01;58.91;96635.06;5056076;28;20116;-78
2024/01/20 08:30:08;;;;;;;;;;;;;;;-10.04;52.88;96635.13;5068832;28;20280;-77
2024/01/20 08:32:33;;;;;;;;;;;;;;;-9.90;57.11;96644.31;5065584;28;20266;-78
2024/01/20 08:34:59;;;;;;;;;;;;;;;-9.81;56.37;96643.31;5069384;28;20035;-77
2024/01/20 08:37:24;;;;;;;;;;;;;;;-9.73;56.86;96644.03;5072611;28;20361;-77
2024/01/20 08:39:49;;;;;;;;;;;;;;;-9.60;58.46;96644.69;5067521;28;19961;-77
2024/01/20 08:42:14;;;;;;;;;;;;;;;-9.39;59.69;96647.72;5081432;28;19937;-78
2024/01/20 08:44:39;;;;;;;;;;;;;;;-9.24;59.05;96651.75;5074665;28;19962;-77
2024/01/20 08:47:05;;;;;;;;;;;;;;;-8.96;61.30;96641.75;5074042;28;19924;-78
2024/01/20 08:49:30;;;;;;;;;;;;;;;-8.77;60.18;96645.66;5066953;28;19924;-77
2024/01/20 08:51:55;;;;;;;;;;;;;;;-8.60;60.02;96650.47;5073417;28;19978;-78
2024/01/20 08:54:20;;;;;;;;;;;;;;;-8.41;61.21;96661.25;5068124;28;19942;-78
2024/01/20 08:56:47;;;;;;;;;;;;;;;-8.30;58.32;96659.25;5081689;28;19997;-79
2024/01/20 08:59:13;;;;;;;;;;;;;;;-8.12;60.08;96659.69;5077121;28;19962;-78
2024/01/20 09:01:38;;;;;;;;;;;;;;;-8.02;57.73;96662.91;5047547;28;20347;-79
2024/01/20 09:04:03;;;;;;;;;;;;;;;-7.85;57.88;96657.34;5061772;28;19916;-77
2024/01/20 09:06:29;;;;;;;;;;;;;;;-7.71;58.82;96651.81;5066772;28;19944;-77
2024/01/20 09:08:54;;;;;;;;;;;;;;;-7.54;59.29;96648.81;5067225;28;19958;-77
2024/01/20 09:11:19;;;;;;;;;;;;;;;-7.42;57.77;96652.81;5057137;28;20434;-77
2024/01/20 09:13:44;;;;;;;;;;;;;;;-7.28;57.19;96655.03;5077870;28;19956;-77
2024/01/20 09:16:10;;;;;;;;;;;;;;;-7.15;57.93;96665.06;5073819;28;20001;-78
2024/01/20 09:18:35;;;;;;;;;;;;;;;-6.93;58.95;96672.25;5071120;28;19985;-78
2024/01/20 09:21:00;;;;;;;;;;;;;;;-6.77;57.70;96667.44;5065645;28;19991;-78
2024/01/20 09:23:25;;;;;;;;;;;;;;;-6.66;55.07;96667.16;5068381;28;19953;-77
2024/01/20 09:25:51;;;;;;;;;;;;;;;-6.49;58.24;96669.25;5075104;28;19956;-78
2024/01/20 09:28:16;;;;;;;;;;;;;;;-6.28;60.22;96672.91;5063900;28;20020;-77
2024/01/20 09:30:41;;;;;;;;;;;;;;;-6.07;60.83;96678.34;5069830;28;19978;-78
2024/01/20 09:33:06;;;;;;;;;;;;;;;-6.08;52.62;96668.03;5076821;28;20314;-77
2024/01/20 09:35:32;;;;;;;;;;;;;;;-6.03;53.50;96671.31;5049477;28;19925;-78
2024/01/20 09:37:57;;;;;;;;;;;;;;;-5.86;53.55;96669.03;5072796;28;19940;-77
2024/01/20 09:40:23;;;;;;;;;;;;;;;-6.23;44.93;96677.97;5076621;28;19928;-77
2024/01/20 09:42:48;;;;;;;;;;;;;;;-6.37;48.66;96675.81;5046203;28;19916;-77
2024/01/20 09:45:14;;;;;;;;;;;;;;;-6.00;53.71;96668.63;5056918;28;19923;-78
2024/01/20 09:47:39;;;;;;;;;;;;;;;-5.56;53.77;96669.81;5072134;28;19916;-77
2024/01/20 09:50:05;;;;;;;;;;;;;;;-5.21;54.05;96671.22;5053254;28;19954;-78
2024/01/20 09:52:31;;;;;;;;;;;;;;;-5.02;51.34;96674.91;5075240;28;20544;-78
2024/01/20 09:55:02;;;;;;;;;;;;;;;-4.89;48.38;96664.94;5055823;28;19924;-77
2024/01/20 09:57:28;;;;;;;;;;;;;;;-4.70;48.65;96676.34;5066898;28;20030;-79
2024/01/20 09:59:53;;;;;;;;;;;;;;;-4.59;50.35;96686.31;5070591;28;20471;-79
2024/01/20 10:02:18;;;;;;;;;;;;;;;-4.43;55.45;96685.75;5057681;28;20285;-78
2024/01/20 10:04:44;;;;;;;;;;;;;;;-4.12;54.51;96681.97;5040938;28;20011;-78
2024/01/20 10:07:09;;;;;;;;;;;;;;;-4.06;47.06;96680.88;5063531;28;19916;-77
2024/01/20 10:09:35;;;;;;;;;;;;;;;-3.88;52.03;96681.09;5065661;28;19924;-77
2024/01/20 10:12:00;;;;;;;;;;;;;;;-3.68;55.98;96685.47;5073221;28;19930;-78
2024/01/20 10:14:25;;;;;;;;;;;;;;;-3.44;58.62;96677.53;5046788;28;20345;-78
2024/01/20 10:16:50;;;;;;;;;;;;;;;-3.50;54.81;96668.22;5068660;28;20385;-78
2024/01/20 10:19:16;;;;;;;;;;;;;;;-3.12;58.81;96667.53;5048399;28;19963;-79
2024/01/20 10:21:42;;;;;;;;;;;;;;;-2.96;57.10;96667.69;5040602;28;20396;-78
2024/01/20 10:24:08;;;;;;;;;;;;;;;-2.91;53.96;96665.75;5066449;28;19927;-78
2024/01/20 10:26:43;;;;;;;;;;;;;;;-2.65;59.12;96665.50;5055599;28;19917;-78
2024/01/20 10:29:09;;;;;;;;;;;;;;;-2.58;51.80;96666.06;5063262;28;20423;-78
2024/01/20 10:31:34;;;;;;;;;;;;;;;-2.27;61.22;96670.69;5042107;28;20019;-78
2024/01/20 10:34:00;;;;;;;;;;;;;;;-2.14;55.12;96670.16;5045483;28;20019;-79
2024/01/20 10:36:25;;;;;;;;;;;;;;;-2.14;50.51;96664.94;5056309;28;19924;-79
2024/01/20 10:38:50;;;;;;;;;;;;;;;-2.16;46.43;96661.53;5059099;28;19989;-78
2024/01/20 10:41:15;;;;;;;;;;;;;;;-2.06;61.35;96673.22;5046059;28;20309;-78
2024/01/20 10:43:41;;;;;;;;;;;;;;;-1.78;61.06;96671.03;5047791;28;20375;-79
2024/01/20 10:46:17;;;;;;;;;;;;;;;-1.70;48.91;96670.69;5042006;28;19921;-78
2024/01/20 10:48:45;;;;;;;;;;;;;;;-1.38;62.34;96676.06;5041103;28;19932;-79
2024/01/20 10:51:11;;;;;;;;;;;;;;;-1.24;59.75;96671.00;5044202;28;20477;-78
2024/01/20 10:53:36;;;;;;;;;;;;;;;-1.01;63.47;96671.59;5049709;28;20011;-79
2024/01/20 10:56:01;;;;;;;;;;;;;;;-0.86;60.97;96663.91;5061540;28;20335;-78
2024/01/20 10:58:31;;;;;;;;;;;;;;;-1.58;51.84;96662.25;5054628;28;19995;-79
2024/01/20 11:00:57;;;;;;;;;;;;;;;-1.47;62.15;96665.16;5047512;28;19928;-79
2024/01/20 11:03:22;;;;;;;;;;;;;;;-1.08;64.00;96659.78;5045694;28;19920;-79
2024/01/20 11:05:48;;;;;;;;;;;;;;;-0.76;64.18;96659.03;5040343;28;20006;-79
2024/01/20 11:08:13;;;;;;;;;;;;;;;-0.63;63.09;96656.59;5066630;28;20336;-80
2024/01/20 11:10:43;;;;;;;;;;;;;;;-0.48;61.01;96658.41;5070157;28;19935;-79
2024/01/20 11:13:12;;;;;;;;;;;;;;;-0.29;63.65;96657.41;5068028;28;20459;-80
2024/01/20 11:15:38;;;;;;;;;;;;;;;-0.35;60.29;96658.59;5044415;28;20030;-79
2024/01/20 11:18:13;;;;;;;;;;;;;;;-0.24;60.25;96657.97;5063432;28;19927;-79
2024/01/20 11:20:39;;;;;;;;;;;;;;;-1.53;41.34;96665.47;5050467;28;19931;-78
2024/01/20 11:23:07;;;;;;;;;;;;;;;-2.50;42.98;96667.41;5055649;28;20542;-79
2024/01/20 11:25:33;;;;;;;;;;;;;;;-1.47;58.16;96669.53;5051011;28;19927;-79
2024/01/20 11:27:58;;;;;;;;;;;;;;;-0.82;65.19;96666.28;5074243;28;20389;-78
2024/01/20 11:30:43;;;;;;;;;;;;;;;-0.36;64.13;96666.50;5055758;28;20389;-78
2024/01/20 11:33:11;;;;;;;;;;;;;;;-0.14;63.46;96670.59;5075838;28;20525;-79
2024/01/20 11:35:37;;;;;;;;;;;;;;;0.11;62.34;96675.31;5076609;28;20429;-78
2024/01/20 11:38:03;;;;;;;;;;;;;;;0.31;59.10;96668.91;5068910;28;19935;-80
2024/01/20 11:40:28;;;;;;;;;;;;;;;0.56;59.42;96654.41;5061874;28;19920;-78
2024/01/20 11:43:03;;;;;;;;;;;;;;;0.79;58.76;96659.22;5072626;28;19916;-79
2024/01/20 11:45:28;;;;;;;;;;;;;;;0.96;63.10;96659.06;5045921;28;20389;-78
2024/01/20 11:47:53;;;;;;;;;;;;;;;1.16;60.54;96651.75;5076108;28;19920;-79
2024/01/20 11:50:18;;;;;;;;;;;;;;;0.91;45.77;96652.41;5056755;28;19918;-78
2024/01/20 11:52:44;;;;;;;;;;;;;;;1.18;59.55;96647.28;5076487;28;20395;-77
2024/01/20 11:55:09;;;;;;;;;;;;;;;1.32;58.65;96640.34;5072497;28;19924;-79
2024/01/20 11:57:35;;;;;;;;;;;;;;;1.43;59.87;96637.06;5063864;28;19920;-79
2024/01/20 12:00:00;;;;;;;;;;;;;;;1.53;58.37;96632.09;5052663;28;20454;-79
2024/01/20 12:02:25;;;;;;;;;;;;;;;1.61;52.46;96629.84;5060709;28;20483;-78
2024/01/20 12:04:51;;;;;;;;;;;;;;;1.87;60.28;96628.19;5073913;28;20284;-78
2024/01/20 12:07:19;;;;;;;;;;;;;;;2.60;58.85;96620.00;5071890;28;19916;-78
2024/01/20 12:09:44;;;;;;;;;;;;;;;4.40;64.43;96624.19;5068869;28;20000;-78
2024/01/20 12:12:10;;;;;;;;;;;;;;;6.73;31.30;96603.44;5050354;28;20381;-78
2024/01/20 12:14:35;;;;;;;;;;;;;;;9.77;47.55;96612.78;5075815;28;20117;-79
2024/01/20 12:17:00;;;;;;;;;;;;;;;11.96;30.38;96608.72;5076989;28;20288;-79
2024/01/20 12:19:26;;;;;;;;;;;;;;;13.21;30.27;96610.66;5039073;28;19920;-80
2024/01/20 12:21:51;;;;;;;;;;;;;;;13.50;35.62;96612.75;5069124;28;20611;-78
2024/01/20 12:24:16;;;;;;;;;;;;;;;15.39;33.18;96606.47;5076450;28;20396;-78
2024/01/20 12:26:43;;;;;;;;;;;;;;;14.93;27.72;96601.06;5054187;28;19916;-79
2024/01/20 12:29:08;;;;;;;;;;;;;;;16.55;21.46;96602.31;5054455;28;19932;-79
2024/01/20 12:31:33;;;;;;;;;;;;;;;17.49;22.95;96598.69;5073109;28;19923;-79
2024/01/20 12:33:59;;;;;;;;;;;;;;;18.66;19.71;96586.28;5056715;28;19927;-79